sensor_id;sensor_type;location;lat;lon;timestamp;pressure;altitude;pressure_sealevel;temperature;humidity
72118;BME280;59992;47.490;8.736;2022-09-21T00:01:50;97232.31;;;8.66;82.43
72118;BME280;59992;47.490;8.736;2022-09-21T00:04:40;97234.83;;;8.60;82.88
72118;BME280;59992;47.490;8.736;2022-09-21T00:07:31;97233.76;;;8.53;81.99
72118;BME280;59992;47.490;8.736;2022-09-21T00:10:22;97237.51;;;8.44;84.04
72118;BME280;59992;47.490;8.736;2022-09-21T00:13:13;97233.55;;;8.39;84.68
72118;BME280;59992;47.490;8.736;2022-09-21T00:16:07;97233.58;;;8.35;83.66
72118;BME280;59992;47.490;8.736;2022-09-21T00:18:59;97229.53;;;8.29;85.22
72118;BME280;59992;47.490;8.736;2022-09-21T00:21:54;97231.84;;;8.26;84.35
72118;BME280;59992;47.490;8.736;2022-09-21T00:24:45;97231.95;;;8.20;83.92
72118;BME280;59992;47.490;8.736;2022-09-21T00:27:36;97228.23;;;8.13;83.93
72118;BME280;59992;47.490;8.736;2022-09-21T00:30:26;97231.02;;;8.04;83.81
72118;BME280;59992;47.490;8.736;2022-09-21T00:33:17;97227.23;;;7.94;85.79
72118;BME280;59992;47.490;8.736;2022-09-21T00:36:10;97226.94;;;7.88;85.59
72118;BME280;59992;47.490;8.736;2022-09-21T00:39:01;97223.48;;;7.84;85.84
72118;BME280;59992;47.490;8.736;2022-09-21T00:41:52;97225.16;;;7.82;85.09
72118;BME280;59992;47.490;8.736;2022-09-21T00:44:42;97223.55;;;7.79;84.05
72118;BME280;59992;47.490;8.736;2022-09-21T00:47:36;97223.17;;;7.77;84.76
72118;BME280;59992;47.490;8.736;2022-09-21T00:50:28;97219.37;;;7.72;83.42
72118;BME280;59992;47.490;8.736;2022-09-21T00:53:20;97221.84;;;7.63;86.16
72118;BME280;59992;47.490;8.736;2022-09-21T00:56:12;97226.20;;;7.60;84.78
72118;BME280;59992;47.490;8.736;2022-09-21T00:59:04;97224.40;;;7.56;83.87
72118;BME280;59992;47.490;8.736;2022-09-21T01:01:55;97220.67;;;7.53;85.10
72118;BME280;59992;47.490;8.736;2022-09-21T01:04:47;97225.05;;;7.51;84.10
72118;BME280;59992;47.490;8.736;2022-09-21T01:07:41;97221.81;;;7.45;86.32
72118;BME280;59992;47.490;8.736;2022-09-21T01:10:37;97225.56;;;7.43;86.25
72118;BME280;59992;47.490;8.736;2022-09-21T01:13:36;97223.84;;;7.38;85.41
72118;BME280;59992;47.490;8.736;2022-09-21T01:16:36;97224.64;;;7.33;83.94
72118;BME280;59992;47.490;8.736;2022-09-21T01:22:59;97224.30;;;7.26;86.47
72118;BME280;59992;47.490;8.736;2022-09-21T01:26:03;97219.89;;;7.23;87.19
72118;BME280;59992;47.490;8.736;2022-09-21T01:29:14;97221.86;;;7.19;88.40
72118;BME280;59992;47.490;8.736;2022-09-21T01:32:13;97217.09;;;7.14;88.01
72118;BME280;59992;47.490;8.736;2022-09-21T01:35:10;97215.81;;;7.10;89.22
72118;BME280;59992;47.490;8.736;2022-09-21T01:38:04;97216.23;;;7.11;87.78
72118;BME280;59992;47.490;8.736;2022-09-21T01:40:59;97220.23;;;7.12;88.86
72118;BME280;59992;47.490;8.736;2022-09-21T01:43:54;97182.14;;;6.89;89.64
72118;BME280;59992;47.490;8.736;2022-09-21T01:46:47;97215.50;;;7.16;88.97
72118;BME280;59992;47.490;8.736;2022-09-21T01:49:40;97216.02;;;7.16;88.90
72118;BME280;59992;47.490;8.736;2022-09-21T01:52:38;97195.90;;;7.03;88.72
72118;BME280;59992;47.490;8.736;2022-09-21T01:55:32;97219.28;;;7.16;87.83
72118;BME280;59992;47.490;8.736;2022-09-21T01:58:32;97218.84;;;7.14;88.91
72118;BME280;59992;47.490;8.736;2022-09-21T02:01:26;97219.55;;;7.13;88.67
72118;BME280;59992;47.490;8.736;2022-09-21T02:04:18;97215.93;;;7.11;88.29
72118;BME280;59992;47.490;8.736;2022-09-21T02:07:10;97220.79;;;7.08;87.84
72118;BME280;59992;47.490;8.736;2022-09-21T02:10:00;97215.66;;;7.06;86.38
72118;BME280;59992;47.490;8.736;2022-09-21T02:12:53;97217.77;;;7.00;87.62
72118;BME280;59992;47.490;8.736;2022-09-21T02:16:02;97219.05;;;6.96;87.27
72118;BME280;59992;47.490;8.736;2022-09-21T02:19:08;97211.80;;;6.94;88.18
72118;BME280;59992;47.490;8.736;2022-09-21T02:22:04;97216.56;;;6.92;88.02
72118;BME280;59992;47.490;8.736;2022-09-21T02:25:04;97218.05;;;6.91;86.25
72118;BME280;59992;47.490;8.736;2022-09-21T02:28:03;97213.27;;;6.87;86.82
72118;BME280;59992;47.490;8.736;2022-09-21T02:31:03;97213.54;;;6.80;87.53
72118;BME280;59992;47.490;8.736;2022-09-21T02:33:59;97214.57;;;6.73;87.52
72118;BME280;59992;47.490;8.736;2022-09-21T02:36:53;97209.75;;;6.71;86.88
72118;BME280;59992;47.490;8.736;2022-09-21T02:39:50;97208.19;;;6.68;88.53
72118;BME280;59992;47.490;8.736;2022-09-21T02:42:46;97201.66;;;6.54;89.02
72118;BME280;59992;47.490;8.736;2022-09-21T02:45:44;97207.30;;;6.56;88.10
72118;BME280;59992;47.490;8.736;2022-09-21T02:48:39;97207.23;;;6.52;89.81
72118;BME280;59992;47.490;8.736;2022-09-21T02:51:37;97209.05;;;6.50;88.95
72118;BME280;59992;47.490;8.736;2022-09-21T02:54:32;97207.94;;;6.44;89.01
72118;BME280;59992;47.490;8.736;2022-09-21T02:57:24;97202.90;;;6.42;90.32
72118;BME280;59992;47.490;8.736;2022-09-21T03:00:16;97202.13;;;6.42;90.55
72118;BME280;59992;47.490;8.736;2022-09-21T03:03:18;97204.88;;;6.43;89.57
72118;BME280;59992;47.490;8.736;2022-09-21T03:06:09;97202.00;;;6.40;90.05
72118;BME280;59992;47.490;8.736;2022-09-21T03:09:00;97202.85;;;6.37;90.12
72118;BME280;59992;47.490;8.736;2022-09-21T03:11:50;97199.52;;;6.35;89.69
72118;BME280;59992;47.490;8.736;2022-09-21T03:14:41;97198.52;;;6.50;88.35
72118;BME280;59992;47.490;8.736;2022-09-21T03:17:31;97198.50;;;6.53;88.74
72118;BME280;59992;47.490;8.736;2022-09-21T03:20:23;97199.01;;;6.54;88.23
72118;BME280;59992;47.490;8.736;2022-09-21T03:23:14;97198.48;;;6.52;86.77
72118;BME280;59992;47.490;8.736;2022-09-21T03:26:05;97200.52;;;6.47;88.63
72118;BME280;59992;47.490;8.736;2022-09-21T03:28:56;97198.83;;;6.44;89.19
72118;BME280;59992;47.490;8.736;2022-09-21T03:31:47;97201.05;;;6.41;88.40
72118;BME280;59992;47.490;8.736;2022-09-21T03:34:38;97200.19;;;6.40;86.37
72118;BME280;59992;47.490;8.736;2022-09-21T03:37:29;97206.73;;;6.36;87.04
72118;BME280;59992;47.490;8.736;2022-09-21T03:40:19;97207.64;;;6.33;88.86
72118;BME280;59992;47.490;8.736;2022-09-21T03:43:10;97205.38;;;6.28;87.01
72118;BME280;59992;47.490;8.736;2022-09-21T03:46:01;97207.61;;;6.18;87.93
72118;BME280;59992;47.490;8.736;2022-09-21T03:48:52;97209.10;;;6.12;87.10
72118;BME280;59992;47.490;8.736;2022-09-21T03:51:43;97211.11;;;6.08;86.35
72118;BME280;59992;47.490;8.736;2022-09-21T03:54:34;97212.41;;;6.03;87.17
72118;BME280;59992;47.490;8.736;2022-09-21T03:57:25;97214.14;;;6.00;86.99
72118;BME280;59992;47.490;8.736;2022-09-21T04:00:16;97213.05;;;5.93;89.04
72118;BME280;59992;47.490;8.736;2022-09-21T04:03:07;97212.23;;;5.88;89.18
72118;BME280;59992;47.490;8.736;2022-09-21T04:05:58;97208.74;;;5.85;88.84
72118;BME280;59992;47.490;8.736;2022-09-21T04:08:50;97214.20;;;5.80;89.77
72118;BME280;59992;47.490;8.736;2022-09-21T04:11:43;97210.73;;;5.78;88.50
72118;BME280;59992;47.490;8.736;2022-09-21T04:14:33;97210.83;;;5.77;89.41
72118;BME280;59992;47.490;8.736;2022-09-21T04:17:25;97212.19;;;5.77;89.97
72118;BME280;59992;47.490;8.736;2022-09-21T04:20:16;97211.14;;;5.77;89.72
72118;BME280;59992;47.490;8.736;2022-09-21T04:23:07;97214.42;;;5.78;89.81
72118;BME280;59992;47.490;8.736;2022-09-21T04:25:58;97216.95;;;5.81;88.65
72118;BME280;59992;47.490;8.736;2022-09-21T04:28:49;97221.19;;;5.80;87.94
72118;BME280;59992;47.490;8.736;2022-09-21T04:31:40;97220.64;;;5.76;88.12
72118;BME280;59992;47.490;8.736;2022-09-21T04:34:31;97220.89;;;5.73;88.76
72118;BME280;59992;47.490;8.736;2022-09-21T04:37:22;97218.77;;;5.69;88.48
72118;BME280;59992;47.490;8.736;2022-09-21T04:40:13;97220.70;;;5.67;89.40
72118;BME280;59992;47.490;8.736;2022-09-21T04:43:04;97219.83;;;5.66;88.31
72118;BME280;59992;47.490;8.736;2022-09-21T04:45:54;97220.46;;;5.64;88.72
72118;BME280;59992;47.490;8.736;2022-09-21T04:48:45;97220.42;;;5.55;88.91
72118;BME280;59992;47.490;8.736;2022-09-21T04:51:36;97222.59;;;5.51;90.43
72118;BME280;59992;47.490;8.736;2022-09-21T04:54:27;97224.23;;;5.49;88.55
72118;BME280;59992;47.490;8.736;2022-09-21T04:57:17;97225.36;;;5.40;89.37
72118;BME280;59992;47.490;8.736;2022-09-21T05:00:10;97221.15;;;5.32;89.33
72118;BME280;59992;47.490;8.736;2022-09-21T05:03:01;97228.80;;;5.36;89.62
72118;BME280;59992;47.490;8.736;2022-09-21T05:05:55;97232.30;;;5.36;90.28
72118;BME280;59992;47.490;8.736;2022-09-21T05:08:46;97228.14;;;5.39;89.73
72118;BME280;59992;47.490;8.736;2022-09-21T05:11:54;97228.23;;;5.34;89.27
72118;BME280;59992;47.490;8.736;2022-09-21T05:14:45;97235.87;;;5.34;88.67
72118;BME280;59992;47.490;8.736;2022-09-21T05:17:35;97234.54;;;5.29;89.16
72118;BME280;59992;47.490;8.736;2022-09-21T05:20:26;97236.60;;;5.28;90.91
72118;BME280;59992;47.490;8.736;2022-09-21T05:23:16;97238.33;;;5.30;90.14
72118;BME280;59992;47.490;8.736;2022-09-21T05:26:07;97238.16;;;5.34;90.51
72118;BME280;59992;47.490;8.736;2022-09-21T05:28:59;97241.27;;;5.38;89.74
72118;BME280;59992;47.490;8.736;2022-09-21T05:31:53;97243.27;;;5.41;90.35
72118;BME280;59992;47.490;8.736;2022-09-21T05:34:56;97241.65;;;5.47;89.84
72118;BME280;59992;47.490;8.736;2022-09-21T05:37:54;97241.98;;;5.55;89.80
72118;BME280;59992;47.490;8.736;2022-09-21T05:40:47;97244.27;;;5.61;90.34
72118;BME280;59992;47.490;8.736;2022-09-21T05:43:39;97248.08;;;5.68;89.80
72118;BME280;59992;47.490;8.736;2022-09-21T05:46:36;97245.39;;;5.73;90.41
72118;BME280;59992;47.490;8.736;2022-09-21T05:49:35;97249.61;;;5.84;91.22
72118;BME280;59992;47.490;8.736;2022-09-21T05:52:37;97252.55;;;5.96;89.62
72118;BME280;59992;47.490;8.736;2022-09-21T05:55:39;97256.39;;;6.14;89.96
72118;BME280;59992;47.490;8.736;2022-09-21T05:58:37;97259.86;;;6.82;88.27
72118;BME280;59992;47.490;8.736;2022-09-21T06:01:39;97262.27;;;7.70;84.03
72118;BME280;59992;47.490;8.736;2022-09-21T06:04:33;97262.09;;;8.53;80.73
72118;BME280;59992;47.490;8.736;2022-09-21T06:07:24;97260.31;;;9.20;77.49
72118;BME280;59992;47.490;8.736;2022-09-21T06:10:15;97253.80;;;9.62;76.36
72118;BME280;59992;47.490;8.736;2022-09-21T06:13:06;97253.95;;;10.01;74.74
72118;BME280;59992;47.490;8.736;2022-09-21T06:15:56;97253.55;;;10.44;72.74
72118;BME280;59992;47.490;8.736;2022-09-21T06:18:47;97255.55;;;10.97;70.87
72118;BME280;59992;47.490;8.736;2022-09-21T06:21:37;97260.45;;;11.55;69.08
72118;BME280;59992;47.490;8.736;2022-09-21T06:24:28;97257.34;;;12.09;67.49
72118;BME280;59992;47.490;8.736;2022-09-21T06:27:19;97258.63;;;12.57;64.70
72118;BME280;59992;47.490;8.736;2022-09-21T06:30:11;97256.95;;;13.05;64.23
72118;BME280;59992;47.490;8.736;2022-09-21T06:33:02;97259.64;;;13.51;61.70
72118;BME280;59992;47.490;8.736;2022-09-21T06:35:54;97251.13;;;13.84;60.29
72118;BME280;59992;47.490;8.736;2022-09-21T06:38:45;97255.02;;;14.13;58.92
72118;BME280;59992;47.490;8.736;2022-09-21T06:41:35;97255.48;;;14.41;58.34
72118;BME280;59992;47.490;8.736;2022-09-21T06:44:27;97255.19;;;14.79;58.06
72118;BME280;59992;47.490;8.736;2022-09-21T06:47:18;97254.41;;;15.09;57.06
72118;BME280;59992;47.490;8.736;2022-09-21T06:50:09;97254.23;;;15.42;55.59
72118;BME280;59992;47.490;8.736;2022-09-21T06:53:02;97254.73;;;15.48;54.58
72118;BME280;59992;47.490;8.736;2022-09-21T06:55:52;97258.07;;;15.60;54.51
72118;BME280;59992;47.490;8.736;2022-09-21T06:58:43;97264.07;;;15.90;54.07
72118;BME280;59992;47.490;8.736;2022-09-21T07:01:35;97261.31;;;16.14;53.47
72118;BME280;59992;47.490;8.736;2022-09-21T07:04:26;97258.73;;;16.32;52.65
72118;BME280;59992;47.490;8.736;2022-09-21T07:07:18;97263.92;;;16.55;52.25
72118;BME280;59992;47.490;8.736;2022-09-21T07:10:09;97261.68;;;16.50;51.82
72118;BME280;59992;47.490;8.736;2022-09-21T07:13:03;97258.34;;;16.57;51.62
72118;BME280;59992;47.490;8.736;2022-09-21T07:15:54;97264.09;;;16.83;51.25
72118;BME280;59992;47.490;8.736;2022-09-21T07:18:45;97264.87;;;17.35;52.27
72118;BME280;59992;47.490;8.736;2022-09-21T07:21:36;97262.45;;;17.60;50.26
72118;BME280;59992;47.490;8.736;2022-09-21T07:24:27;97260.31;;;17.95;52.10
72118;BME280;59992;47.490;8.736;2022-09-21T07:27:18;97260.04;;;18.05;48.40
72118;BME280;59992;47.490;8.736;2022-09-21T07:30:10;97259.50;;;18.20;50.00
72118;BME280;59992;47.490;8.736;2022-09-21T07:33:01;97259.00;;;18.24;50.27
72118;BME280;59992;47.490;8.736;2022-09-21T07:35:53;97260.56;;;18.21;48.56
72118;BME280;59992;47.490;8.736;2022-09-21T07:38:44;97265.35;;;18.14;47.50
72118;BME280;59992;47.490;8.736;2022-09-21T07:41:35;97266.69;;;18.08;47.90
72118;BME280;59992;47.490;8.736;2022-09-21T07:44:25;97265.23;;;17.93;47.35
72118;BME280;59992;47.490;8.736;2022-09-21T07:47:18;97263.34;;;17.71;47.25
72118;BME280;59992;47.490;8.736;2022-09-21T07:50:09;97264.13;;;17.60;47.77
72118;BME280;59992;47.490;8.736;2022-09-21T07:53:01;97264.27;;;17.27;47.87
72118;BME280;59992;47.490;8.736;2022-09-21T07:55:52;97264.21;;;17.21;48.90
72118;BME280;59992;47.490;8.736;2022-09-21T07:58:43;97265.36;;;17.13;48.37
72118;BME280;59992;47.490;8.736;2022-09-21T08:01:52;97266.88;;;17.23;49.20
72118;BME280;59992;47.490;8.736;2022-09-21T08:04:43;97266.05;;;17.16;48.81
72118;BME280;59992;47.490;8.736;2022-09-21T08:07:34;97264.30;;;17.08;49.29
72118;BME280;59992;47.490;8.736;2022-09-21T08:10:26;97262.14;;;17.23;49.23
72118;BME280;59992;47.490;8.736;2022-09-21T08:13:19;97263.28;;;17.25;47.92
72118;BME280;59992;47.490;8.736;2022-09-21T08:16:10;97258.48;;;17.11;48.32
72118;BME280;59992;47.490;8.736;2022-09-21T08:19:00;97264.98;;;17.15;48.54
72118;BME280;59992;47.490;8.736;2022-09-21T08:21:52;97261.55;;;17.05;48.12
72118;BME280;59992;47.490;8.736;2022-09-21T08:24:43;97256.05;;;16.89;48.19
72118;BME280;59992;47.490;8.736;2022-09-21T08:27:35;97258.66;;;16.75;47.60
72118;BME280;59992;47.490;8.736;2022-09-21T08:30:25;97259.65;;;16.58;47.90
72118;BME280;59992;47.490;8.736;2022-09-21T08:33:19;97254.15;;;16.59;48.53
72118;BME280;59992;47.490;8.736;2022-09-21T08:36:10;97252.05;;;16.44;48.97
72118;BME280;59992;47.490;8.736;2022-09-21T08:39:01;97260.80;;;16.53;48.32
72118;BME280;59992;47.490;8.736;2022-09-21T08:42:07;97254.81;;;16.48;48.72
72118;BME280;59992;47.490;8.736;2022-09-21T08:45:02;97263.55;;;16.61;48.63
72118;BME280;59992;47.490;8.736;2022-09-21T08:47:57;97257.59;;;16.56;48.87
72118;BME280;59992;47.490;8.736;2022-09-21T08:50:52;97257.92;;;16.39;48.56
72118;BME280;59992;47.490;8.736;2022-09-21T08:53:46;97260.48;;;16.14;48.61
72118;BME280;59992;47.490;8.736;2022-09-21T08:56:38;97261.52;;;16.05;48.97
72118;BME280;59992;47.490;8.736;2022-09-21T08:59:28;97255.42;;;15.85;48.94
72118;BME280;59992;47.490;8.736;2022-09-21T09:02:36;97252.08;;;15.40;49.58
72118;BME280;59992;47.490;8.736;2022-09-21T09:05:36;97245.56;;;15.23;50.46
72118;BME280;59992;47.490;8.736;2022-09-21T09:11:54;97242.70;;;14.93;50.69
72118;BME280;59992;47.490;8.736;2022-09-21T09:15:03;97240.98;;;14.76;51.04
72118;BME280;59992;47.490;8.736;2022-09-21T09:18:03;97240.51;;;14.83;51.19
72118;BME280;59992;47.490;8.736;2022-09-21T09:20:59;97232.73;;;14.65;50.92
72118;BME280;59992;47.490;8.736;2022-09-21T09:23:55;97238.16;;;14.47;50.90
72118;BME280;59992;47.490;8.736;2022-09-21T09:26:52;97236.35;;;14.26;51.81
72118;BME280;59992;47.490;8.736;2022-09-21T09:29:49;97234.89;;;14.25;52.29
72118;BME280;59992;47.490;8.736;2022-09-21T09:32:48;97235.13;;;14.04;52.66
72118;BME280;59992;47.490;8.736;2022-09-21T09:35:47;97229.73;;;14.06;52.27
72118;BME280;59992;47.490;8.736;2022-09-21T09:38:40;97223.59;;;14.08;52.40
72118;BME280;59992;47.490;8.736;2022-09-21T09:41:56;97225.02;;;14.14;51.52
72118;BME280;59992;47.490;8.736;2022-09-21T09:45:07;97219.89;;;14.11;51.11
72118;BME280;59992;47.490;8.736;2022-09-21T09:48:17;97219.81;;;14.11;50.44
72118;BME280;59992;47.490;8.736;2022-09-21T09:51:12;97217.50;;;14.17;50.49
72118;BME280;59992;47.490;8.736;2022-09-21T09:54:03;97213.27;;;14.18;50.59
72118;BME280;59992;47.490;8.736;2022-09-21T09:56:54;97209.66;;;14.25;49.97
72118;BME280;59992;47.490;8.736;2022-09-21T09:59:48;97199.42;;;14.29;49.87
72118;BME280;59992;47.490;8.736;2022-09-21T10:02:46;97199.01;;;14.40;49.65
72118;BME280;59992;47.490;8.736;2022-09-21T10:05:38;97195.33;;;14.48;49.75
72118;BME280;59992;47.490;8.736;2022-09-21T10:08:42;97192.66;;;14.57;49.34
72118;BME280;59992;47.490;8.736;2022-09-21T10:11:37;97187.11;;;14.60;49.14
72118;BME280;59992;47.490;8.736;2022-09-21T10:14:30;97181.59;;;14.55;48.11
72118;BME280;59992;47.490;8.736;2022-09-21T10:17:24;97184.02;;;14.54;48.03
72118;BME280;59992;47.490;8.736;2022-09-21T10:20:16;97177.55;;;14.55;48.41
72118;BME280;59992;47.490;8.736;2022-09-21T10:23:12;97181.80;;;14.55;47.78
72118;BME280;59992;47.490;8.736;2022-09-21T10:26:06;97181.15;;;14.58;47.94
72118;BME280;59992;47.490;8.736;2022-09-21T10:28:59;97181.02;;;14.60;47.41
72118;BME280;59992;47.490;8.736;2022-09-21T10:31:57;97170.86;;;14.61;47.24
72118;BME280;59992;47.490;8.736;2022-09-21T10:35:11;97169.98;;;14.64;47.08
72118;BME280;59992;47.490;8.736;2022-09-21T10:38:15;97164.90;;;14.69;46.42
72118;BME280;59992;47.490;8.736;2022-09-21T10:41:06;97159.08;;;14.74;46.95
72118;BME280;59992;47.490;8.736;2022-09-21T10:43:57;97149.93;;;14.76;47.04
72118;BME280;59992;47.490;8.736;2022-09-21T10:46:48;97158.26;;;14.91;46.03
72118;BME280;59992;47.490;8.736;2022-09-21T10:49:44;97154.53;;;14.94;45.19
72118;BME280;59992;47.490;8.736;2022-09-21T10:52:38;97155.69;;;14.95;45.08
72118;BME280;59992;47.490;8.736;2022-09-21T10:55:31;97153.70;;;14.95;45.28
72118;BME280;59992;47.490;8.736;2022-09-21T10:58:26;97155.17;;;15.00;45.26
72118;BME280;59992;47.490;8.736;2022-09-21T11:01:22;97156.56;;;15.02;44.64
72118;BME280;59992;47.490;8.736;2022-09-21T11:04:17;97154.05;;;15.02;44.36
72118;BME280;59992;47.490;8.736;2022-09-21T11:07:14;97152.36;;;15.00;44.65
72118;BME280;59992;47.490;8.736;2022-09-21T11:10:14;97150.55;;;15.05;45.17
72118;BME280;59992;47.490;8.736;2022-09-21T11:13:24;97151.54;;;15.04;45.09
72118;BME280;59992;47.490;8.736;2022-09-21T11:16:30;97147.38;;;15.13;45.48
72118;BME280;59992;47.490;8.736;2022-09-21T11:19:27;97142.29;;;15.16;45.03
72118;BME280;59992;47.490;8.736;2022-09-21T11:22:25;97141.54;;;15.19;44.52
72118;BME280;59992;47.490;8.736;2022-09-21T11:25:30;97142.31;;;15.23;44.34
72118;BME280;59992;47.490;8.736;2022-09-21T11:28:27;97140.64;;;15.25;43.94
72118;BME280;59992;47.490;8.736;2022-09-21T11:31:33;97128.67;;;15.29;44.51
72118;BME280;59992;47.490;8.736;2022-09-21T11:34:41;97121.83;;;15.35;44.36
72118;BME280;59992;47.490;8.736;2022-09-21T11:37:50;97118.92;;;15.48;44.94
72118;BME280;59992;47.490;8.736;2022-09-21T11:41:05;97121.02;;;15.62;43.49
72118;BME280;59992;47.490;8.736;2022-09-21T11:44:10;97115.99;;;15.72;43.81
72118;BME280;59992;47.490;8.736;2022-09-21T11:47:13;97117.98;;;15.77;42.89
72118;BME280;59992;47.490;8.736;2022-09-21T11:50:31;97115.70;;;15.80;43.75
72118;BME280;59992;47.490;8.736;2022-09-21T11:56:43;97110.67;;;15.91;43.21
72118;BME280;59992;47.490;8.736;2022-09-21T11:59:53;97105.40;;;15.97;42.68
72118;BME280;59992;47.490;8.736;2022-09-21T12:06:39;97106.39;;;15.95;41.70
72118;BME280;59992;47.490;8.736;2022-09-21T12:09:50;97104.86;;;15.97;42.24
72118;BME280;59992;47.490;8.736;2022-09-21T12:12:47;97100.06;;;16.03;42.68
72118;BME280;59992;47.490;8.736;2022-09-21T12:15:42;97095.63;;;16.05;42.64
72118;BME280;59992;47.490;8.736;2022-09-21T12:18:40;97098.31;;;16.08;41.32
72118;BME280;59992;47.490;8.736;2022-09-21T12:21:39;97087.23;;;16.09;41.27
72118;BME280;59992;47.490;8.736;2022-09-21T12:24:36;97084.70;;;16.13;41.68
72118;BME280;59992;47.490;8.736;2022-09-21T12:27:33;97088.44;;;16.20;42.18
72118;BME280;59992;47.490;8.736;2022-09-21T12:30:27;97084.31;;;16.25;40.87
72118;BME280;59992;47.490;8.736;2022-09-21T12:33:24;97079.95;;;16.31;41.19
72118;BME280;59992;47.490;8.736;2022-09-21T12:36:23;97080.86;;;16.35;40.87
72118;BME280;59992;47.490;8.736;2022-09-21T12:39:19;97075.73;;;16.39;41.34
72118;BME280;59992;47.490;8.736;2022-09-21T12:42:24;97073.27;;;16.40;40.78
72118;BME280;59992;47.490;8.736;2022-09-21T12:45:18;97073.96;;;16.38;41.28
72118;BME280;59992;47.490;8.736;2022-09-21T12:48:19;97065.95;;;16.37;41.07
72118;BME280;59992;47.490;8.736;2022-09-21T12:51:15;97064.64;;;16.37;39.51
72118;BME280;59992;47.490;8.736;2022-09-21T12:54:11;97062.65;;;16.42;40.39
72118;BME280;59992;47.490;8.736;2022-09-21T12:57:09;97060.73;;;16.45;41.35
72118;BME280;59992;47.490;8.736;2022-09-21T13:00:06;97063.49;;;16.47;41.65
72118;BME280;59992;47.490;8.736;2022-09-21T13:03:02;97060.90;;;16.51;40.73
72118;BME280;59992;47.490;8.736;2022-09-21T13:06:26;97058.23;;;16.51;40.98
72118;BME280;59992;47.490;8.736;2022-09-21T13:09:27;97059.44;;;16.54;41.83
72118;BME280;59992;47.490;8.736;2022-09-21T13:12:20;97058.05;;;16.60;42.19
72118;BME280;59992;47.490;8.736;2022-09-21T13:15:21;97060.25;;;16.64;42.60
72118;BME280;59992;47.490;8.736;2022-09-21T13:18:21;97048.92;;;16.69;42.00
72118;BME280;59992;47.490;8.736;2022-09-21T13:21:18;97057.55;;;16.72;42.74
72118;BME280;59992;47.490;8.736;2022-09-21T13:24:28;97049.82;;;16.74;42.06
72118;BME280;59992;47.490;8.736;2022-09-21T13:27:20;97046.06;;;16.79;41.13
72118;BME280;59992;47.490;8.736;2022-09-21T13:30:30;97045.75;;;16.77;41.11
72118;BME280;59992;47.490;8.736;2022-09-21T13:33:36;97048.60;;;16.74;41.24
72118;BME280;59992;47.490;8.736;2022-09-21T13:36:33;97045.75;;;16.78;41.26
72118;BME280;59992;47.490;8.736;2022-09-21T13:39:24;97038.41;;;16.78;42.03
72118;BME280;59992;47.490;8.736;2022-09-21T13:42:45;97038.89;;;16.71;40.62
72118;BME280;59992;47.490;8.736;2022-09-21T13:45:59;97039.84;;;16.66;39.24
72118;BME280;59992;47.490;8.736;2022-09-21T13:48:53;97036.06;;;16.70;41.17
72118;BME280;59992;47.490;8.736;2022-09-21T13:51:54;97032.54;;;16.74;41.47
72118;BME280;59992;47.490;8.736;2022-09-21T13:54:49;97035.51;;;16.80;41.96
72118;BME280;59992;47.490;8.736;2022-09-21T13:57:45;97030.20;;;16.87;42.41
72118;BME280;59992;47.490;8.736;2022-09-21T14:00:40;97029.92;;;16.93;41.32
72118;BME280;59992;47.490;8.736;2022-09-21T14:03:35;97033.67;;;16.95;40.71
72118;BME280;59992;47.490;8.736;2022-09-21T14:06:29;97033.83;;;16.94;40.20
72118;BME280;59992;47.490;8.736;2022-09-21T14:09:27;97033.85;;;16.88;39.71
72118;BME280;59992;47.490;8.736;2022-09-21T14:12:23;97036.15;;;16.86;40.11
72118;BME280;59992;47.490;8.736;2022-09-21T14:15:37;97030.11;;;16.86;40.07
72118;BME280;59992;47.490;8.736;2022-09-21T14:18:38;97034.38;;;16.93;40.31
72118;BME280;59992;47.490;8.736;2022-09-21T14:21:29;97032.13;;;16.98;40.53
72118;BME280;59992;47.490;8.736;2022-09-21T14:24:21;97030.98;;;16.97;40.56
72118;BME280;59992;47.490;8.736;2022-09-21T14:27:27;97031.38;;;16.96;41.12
72118;BME280;59992;47.490;8.736;2022-09-21T14:30:22;97033.06;;;16.95;40.81
72118;BME280;59992;47.490;8.736;2022-09-21T14:33:34;97036.43;;;16.94;40.52
72118;BME280;59992;47.490;8.736;2022-09-21T14:36:35;97032.92;;;16.90;40.34
72118;BME280;59992;47.490;8.736;2022-09-21T14:39:34;97035.17;;;16.86;41.13
72118;BME280;59992;47.490;8.736;2022-09-21T14:42:28;97024.92;;;16.86;41.48
72118;BME280;59992;47.490;8.736;2022-09-21T14:48:44;97023.59;;;16.89;41.61
72118;BME280;59992;47.490;8.736;2022-09-21T14:51:44;97027.85;;;16.96;41.83
72118;BME280;59992;47.490;8.736;2022-09-21T14:54:45;97029.92;;;16.93;40.84
72118;BME280;59992;47.490;8.736;2022-09-21T15:01:18;97030.67;;;16.79;40.67
72118;BME280;59992;47.490;8.736;2022-09-21T15:04:27;97032.92;;;16.73;41.14
72118;BME280;59992;47.490;8.736;2022-09-21T15:07:29;97034.16;;;16.69;41.49
72118;BME280;59992;47.490;8.736;2022-09-21T15:11:04;97028.29;;;16.66;42.10
72118;BME280;59992;47.490;8.736;2022-09-21T15:14:12;97030.03;;;16.69;41.96
72118;BME280;59992;47.490;8.736;2022-09-21T15:17:22;97026.89;;;16.68;41.70
72118;BME280;59992;47.490;8.736;2022-09-21T15:20:21;97024.61;;;16.66;41.92
72118;BME280;59992;47.490;8.736;2022-09-21T15:23:19;97034.63;;;16.66;41.66
72118;BME280;59992;47.490;8.736;2022-09-21T15:26:14;97031.21;;;16.59;42.13
72118;BME280;59992;47.490;8.736;2022-09-21T15:29:07;97031.91;;;16.55;42.47
72118;BME280;59992;47.490;8.736;2022-09-21T15:31:58;97029.70;;;16.51;42.99
72118;BME280;59992;47.490;8.736;2022-09-21T15:34:49;97029.55;;;16.48;42.87
72118;BME280;59992;47.490;8.736;2022-09-21T15:37:48;97031.99;;;16.47;43.00
72118;BME280;59992;47.490;8.736;2022-09-21T15:40:47;97033.06;;;16.44;42.67
72118;BME280;59992;47.490;8.736;2022-09-21T15:43:40;97034.82;;;16.40;42.82
72118;BME280;59992;47.490;8.736;2022-09-21T15:46:31;97031.16;;;16.39;42.81
72118;BME280;59992;47.490;8.736;2022-09-21T15:49:22;97031.46;;;16.35;43.27
72118;BME280;59992;47.490;8.736;2022-09-21T15:52:17;97033.84;;;16.31;43.43
72118;BME280;59992;47.490;8.736;2022-09-21T15:55:15;97032.71;;;16.28;43.71
72118;BME280;59992;47.490;8.736;2022-09-21T15:58:23;97037.08;;;16.24;43.62